Terminal Aerodrome Forecast
Issued by NWS

Home | Current Version | Previous Version | Graphics & Text | Print | Product List | Glossary On
Versions: 1 2 3 4 5 6 7 8 9 10 11 12
504
FTUS43 KTOP 181124
TAFFOE
TAF
KFOE 181124Z 1812/1912 19011KT P6SM SKC
     FM181400 20012G21KT P6SM FEW250
     FM182300 21006KT P6SM FEW200=

USA.gov is the U.S. government's official web portal to all federal, state and local government web resources and services.